createdAt,value
2022-11-25T00:01:24.898Z,9.30
2022-11-25T00:03:54.290Z,11.88
2022-11-25T00:06:23.613Z,11.35
2022-11-25T00:09:01.709Z,8.23
2022-11-25T00:11:28.545Z,8.65
2022-11-25T00:13:57.227Z,11.68
2022-11-25T00:16:26.493Z,9.32
2022-11-25T00:18:55.806Z,6.78
2022-11-25T00:21:25.731Z,5.18
2022-11-25T00:24:00.820Z,5.07
2022-11-25T00:26:29.572Z,9.07
2022-11-25T00:28:59.766Z,7.82
2022-11-25T00:31:29.064Z,6.72
2022-11-25T00:33:56.639Z,6.30
2022-11-25T00:36:26.287Z,8.90
2022-11-25T00:39:14.660Z,5.90
2022-11-25T00:42:00.482Z,6.40
2022-11-25T00:44:37.502Z,7.85
2022-11-25T00:47:12.170Z,7.65
2022-11-25T00:49:41.693Z,8.82
2022-11-25T00:52:10.462Z,7.90
2022-11-25T00:54:37.479Z,5.30
2022-11-25T00:57:04.566Z,10.13
2022-11-25T00:59:31.490Z,9.77
2022-11-25T01:01:58.491Z,7.43
2022-11-25T01:04:25.637Z,7.47
2022-11-25T01:06:54.053Z,7.22
2022-11-25T01:09:20.959Z,10.15
2022-11-25T01:11:50.844Z,9.52
2022-11-25T01:14:18.906Z,8.05
2022-11-25T01:16:45.941Z,6.95
2022-11-25T01:19:13.094Z,6.97
2022-11-25T01:21:40.543Z,6.88
2022-11-25T01:24:08.038Z,7.43
2022-11-25T01:26:36.483Z,8.30
2022-11-25T01:29:06.497Z,9.05
2022-11-25T01:31:35.974Z,9.93
2022-11-25T01:34:07.047Z,9.10
2022-11-25T01:36:34.274Z,11.82
2022-11-25T01:39:01.380Z,9.25
2022-11-25T01:41:31.295Z,6.28
2022-11-25T01:44:19.123Z,6.75
2022-11-25T01:47:16.090Z,8.60
2022-11-25T01:49:45.719Z,6.80
2022-11-25T01:52:21.688Z,7.50
2022-11-25T01:55:01.035Z,7.20
2022-11-25T01:57:48.585Z,8.73
2022-11-25T02:00:16.308Z,9.77
2022-11-25T02:02:43.524Z,7.40
2022-11-25T02:05:13.454Z,9.45
2022-11-25T02:07:44.150Z,9.90
2022-11-25T02:10:14.860Z,6.85
2022-11-25T02:12:43.595Z,8.48
2022-11-25T02:15:10.943Z,8.52
2022-11-25T02:17:37.816Z,7.05
2022-11-25T02:20:10.989Z,8.25
2022-11-25T02:23:15.013Z,14.05
2022-11-25T02:25:43.493Z,8.93
2022-11-25T02:28:23.906Z,8.05
2022-11-25T02:30:51.271Z,7.10
2022-11-25T02:33:18.327Z,8.95
2022-11-25T02:35:49.896Z,9.60
2022-11-25T02:38:22.663Z,6.32
2022-11-25T02:43:17.962Z,6.32
2022-11-25T02:46:02.304Z,5.68
2022-11-25T02:51:27.437Z,4.28
2022-11-25T02:53:54.917Z,6.05
2022-11-25T02:56:24.532Z,6.07
2022-11-25T02:58:51.393Z,5.80
2022-11-25T03:01:18.585Z,4.85
2022-11-25T03:03:45.536Z,9.18
2022-11-25T03:06:12.466Z,7.40
2022-11-25T03:08:39.665Z,5.63
2022-11-25T03:11:06.714Z,6.57
2022-11-25T03:13:33.908Z,6.38
2022-11-25T03:16:00.715Z,9.02
2022-11-25T03:18:27.849Z,5.43
2022-11-25T03:20:55.789Z,7.53
2022-11-25T03:23:22.798Z,8.98
2022-11-25T03:25:50.024Z,9.80
2022-11-25T03:28:16.853Z,6.55
2022-11-25T03:30:44.110Z,6.22
2022-11-25T03:33:11.018Z,7.22
2022-11-25T03:35:37.844Z,6.53
2022-11-25T03:38:05.004Z,6.55
2022-11-25T03:40:31.804Z,7.03
2022-11-25T03:42:58.591Z,6.75
2022-11-25T03:45:25.436Z,11.32
2022-11-25T03:47:52.205Z,7.97
2022-11-25T03:50:19.159Z,10.60
2022-11-25T03:52:45.988Z,8.88
2022-11-25T03:55:13.244Z,5.60
2022-11-25T03:57:40.824Z,4.95
2022-11-25T04:00:09.510Z,5.75
2022-11-25T04:02:36.390Z,7.43
2022-11-25T04:05:05.491Z,5.07
2022-11-25T04:07:32.575Z,6.75
2022-11-25T04:09:59.479Z,5.35
2022-11-25T04:12:44.787Z,5.72
2022-11-25T04:15:11.767Z,4.70
2022-11-25T04:17:38.850Z,7.32
2022-11-25T04:20:06.437Z,6.57
2022-11-25T04:22:33.566Z,4.45
2022-11-25T04:25:00.407Z,4.63
2022-11-25T04:27:27.277Z,5.47
2022-11-25T04:29:54.080Z,5.97
2022-11-25T04:32:21.013Z,7.63
2022-11-25T04:34:47.848Z,6.00
2022-11-25T04:37:14.861Z,5.40
2022-11-25T04:39:41.697Z,4.63
2022-11-25T04:42:27.135Z,8.02
2022-11-25T04:45:20.937Z,6.43
2022-11-25T04:47:41.525Z,5.25
2022-11-25T04:50:13.270Z,4.30
2022-11-25T04:52:40.062Z,5.03
2022-11-25T04:55:07.295Z,7.63
2022-11-25T04:57:34.116Z,5.32
2022-11-25T05:00:00.904Z,5.78
2022-11-25T05:02:28.982Z,5.18
2022-11-25T05:04:57.297Z,6.90
2022-11-25T05:07:27.717Z,5.28
2022-11-25T05:09:54.756Z,6.95
2022-11-25T05:12:25.096Z,6.93
2022-11-25T05:14:51.905Z,7.22
2022-11-25T05:17:21.879Z,7.13
2022-11-25T05:19:50.162Z,4.60
2022-11-25T05:22:20.720Z,6.05
2022-11-25T05:24:48.033Z,5.47
2022-11-25T05:27:16.130Z,5.82
2022-11-25T05:29:43.441Z,7.38
2022-11-25T05:32:11.045Z,8.63
2022-11-25T05:34:41.824Z,8.23
2022-11-25T05:37:10.059Z,6.30
2022-11-25T05:39:36.965Z,6.75
2022-11-25T05:42:03.921Z,5.60
2022-11-25T05:44:30.888Z,6.68
2022-11-25T05:46:57.776Z,6.45
2022-11-25T05:49:24.687Z,8.52
2022-11-25T05:51:51.472Z,5.55
2022-11-25T05:54:18.460Z,4.05
2022-11-25T05:56:45.217Z,4.28
2022-11-25T05:59:12.021Z,7.18
2022-11-25T06:01:38.764Z,6.85
2022-11-25T06:04:05.847Z,5.75
2022-11-25T06:06:33.145Z,5.03
2022-11-25T06:09:00.394Z,6.28
2022-11-25T06:11:27.269Z,5.57
2022-11-25T06:13:57.599Z,5.05
2022-11-25T06:16:24.749Z,6.05
2022-11-25T06:18:51.702Z,9.07
2022-11-25T06:21:18.796Z,4.65
2022-11-25T06:23:46.237Z,5.80
2022-11-25T06:26:21.578Z,5.63
2022-11-25T06:28:50.482Z,4.30
2022-11-25T06:31:20.297Z,5.40
2022-11-25T06:33:48.866Z,6.10
2022-11-25T06:36:19.487Z,3.95
2022-11-25T06:38:55.453Z,5.50
2022-11-25T06:41:23.085Z,6.25
2022-11-25T06:43:50.209Z,5.43
2022-11-25T06:46:24.609Z,4.00
2022-11-25T06:48:53.577Z,4.93
2022-11-25T06:51:20.446Z,5.78
2022-11-25T06:53:47.984Z,5.60
2022-11-25T06:56:16.158Z,4.63
2022-11-25T06:58:44.446Z,6.07
2022-11-25T07:01:21.814Z,5.18
2022-11-25T07:03:52.253Z,5.90
2022-11-25T07:06:20.678Z,7.10
2022-11-25T07:08:48.641Z,9.30
2022-11-25T07:11:26.669Z,8.25
2022-11-25T07:14:02.422Z,8.75
2022-11-25T07:16:29.712Z,7.53
2022-11-25T07:18:56.726Z,7.47
2022-11-25T07:21:25.068Z,7.68
2022-11-25T07:23:52.956Z,9.38
2022-11-25T07:26:25.862Z,7.97
2022-11-25T07:28:53.951Z,6.18
2022-11-25T07:31:27.226Z,5.35
2022-11-25T07:33:57.704Z,6.07
2022-11-25T07:36:25.296Z,4.63
2022-11-25T07:38:52.515Z,4.43
2022-11-25T07:41:23.054Z,6.22
2022-11-25T07:43:52.560Z,4.55
2022-11-25T07:46:28.133Z,3.83
2022-11-25T07:48:58.477Z,4.75
2022-11-25T07:51:38.857Z,5.15
2022-11-25T07:54:07.883Z,5.03
2022-11-25T07:56:39.899Z,5.90
2022-11-25T07:59:08.756Z,9.07
2022-11-25T08:01:35.707Z,4.55
2022-11-25T08:04:02.719Z,5.63
2022-11-25T08:06:29.879Z,4.88
2022-11-25T08:08:58.408Z,4.82
2022-11-25T08:11:30.405Z,4.75
2022-11-25T08:13:58.386Z,4.05
2022-11-25T08:16:29.696Z,5.28
2022-11-25T08:18:57.555Z,4.20
2022-11-25T08:21:24.818Z,7.38
2022-11-25T08:23:52.681Z,6.78
2022-11-25T08:26:47.194Z,5.97
2022-11-25T08:29:17.016Z,7.68
2022-11-25T08:31:43.989Z,4.32
2022-11-25T08:34:21.645Z,4.78
2022-11-25T08:36:49.041Z,7.05
2022-11-25T08:42:06.190Z,6.35
2022-11-25T08:44:33.595Z,7.18
2022-11-25T08:47:00.802Z,4.05
2022-11-25T08:49:31.136Z,5.55
2022-11-25T08:52:00.530Z,4.20
2022-11-25T08:54:27.332Z,5.10
2022-11-25T08:56:54.119Z,4.65
2022-11-25T08:59:22.892Z,3.78
2022-11-25T09:01:49.880Z,6.95
2022-11-25T09:04:16.846Z,5.72
2022-11-25T09:06:43.666Z,5.60
2022-11-25T09:09:10.480Z,5.28
2022-11-25T09:11:37.449Z,5.43
2022-11-25T09:14:04.509Z,4.07
2022-11-25T09:16:31.524Z,4.90
2022-11-25T09:19:00.052Z,4.35
2022-11-25T09:21:28.193Z,4.32
2022-11-25T09:23:55.122Z,6.30
2022-11-25T09:26:31.284Z,3.00
2022-11-25T09:28:58.466Z,5.35
2022-11-25T09:31:25.447Z,4.10
2022-11-25T09:33:52.666Z,2.95
2022-11-25T09:36:20.811Z,5.80
2022-11-25T09:38:47.777Z,4.55
2022-11-25T09:41:43.803Z,3.58
2022-11-25T09:45:05.516Z,3.22
2022-11-25T09:47:57.569Z,6.35
2022-11-25T09:50:34.707Z,2.85
2022-11-25T09:53:13.758Z,6.13
2022-11-25T09:55:47.370Z,3.08
2022-11-25T09:58:32.316Z,2.67
2022-11-25T10:01:00.559Z,1.98
2022-11-25T10:03:41.571Z,1.38
2022-11-25T10:06:32.302Z,1.60
2022-11-25T10:09:04.327Z,1.05
2022-11-25T10:11:57.660Z,2.15
2022-11-25T10:14:45.360Z,1.38
2022-11-25T10:17:33.848Z,1.65
2022-11-25T10:20:13.159Z,5.15
2022-11-25T10:22:46.660Z,1.40
2022-11-25T10:25:24.372Z,4.15
2022-11-25T10:28:05.110Z,1.40
2022-11-25T10:30:42.183Z,1.38
2022-11-25T10:33:21.242Z,4.05
2022-11-25T10:36:00.645Z,3.92
2022-11-25T10:38:36.547Z,1.67
2022-11-25T10:41:04.404Z,2.47
2022-11-25T10:43:33.547Z,5.57
2022-11-25T10:46:43.334Z,19.77
2022-11-25T10:49:41.323Z,6.30
2022-11-25T10:52:12.283Z,13.98
2022-11-25T10:54:39.341Z,9.18
2022-11-25T10:57:20.320Z,5.57
2022-11-25T11:00:00.613Z,6.65
2022-11-25T11:02:30.133Z,6.68
2022-11-25T11:05:10.520Z,5.28
2022-11-25T11:07:38.874Z,4.32
2022-11-25T11:10:17.742Z,1.95
2022-11-25T11:12:58.473Z,5.10
2022-11-25T11:15:26.736Z,4.63
2022-11-25T11:17:54.766Z,2.50
2022-11-25T11:20:26.214Z,3.15
2022-11-25T11:23:08.830Z,2.63
2022-11-25T11:25:38.163Z,2.40
2022-11-25T11:28:34.815Z,4.28
2022-11-25T11:31:08.203Z,4.00
2022-11-25T11:33:35.183Z,2.55
2022-11-25T11:36:26.634Z,3.28
2022-11-25T11:38:57.295Z,2.25
2022-11-25T11:41:50.817Z,5.72
2022-11-25T11:44:29.757Z,3.45
2022-11-25T11:47:02.440Z,2.47
2022-11-25T11:49:38.234Z,1.60
2022-11-25T11:52:07.740Z,2.67
2022-11-25T11:54:36.580Z,2.08
2022-11-25T11:57:21.953Z,5.85
2022-11-25T11:59:53.512Z,3.30
2022-11-25T12:02:22.882Z,3.05
2022-11-25T12:05:11.900Z,11.02
2022-11-25T12:07:48.007Z,2.30
2022-11-25T12:10:14.874Z,3.05
2022-11-25T12:13:08.335Z,2.72
2022-11-25T12:15:48.423Z,2.28
2022-11-25T12:18:38.685Z,2.70
2022-11-25T12:21:12.769Z,2.20
2022-11-25T12:23:50.709Z,3.88
2022-11-25T12:26:43.376Z,3.13
2022-11-25T12:29:14.823Z,2.75
2022-11-25T12:31:53.596Z,5.35
2022-11-25T12:34:50.146Z,3.65
2022-11-25T12:37:28.580Z,2.85
2022-11-25T12:40:13.237Z,5.90
2022-11-25T12:42:42.102Z,2.30
2022-11-25T12:45:22.498Z,3.28
2022-11-25T12:47:49.604Z,6.38
2022-11-25T12:50:22.062Z,3.65
2022-11-25T12:53:07.227Z,4.55
2022-11-25T12:55:35.087Z,4.03
2022-11-25T12:58:26.456Z,5.50
2022-11-25T13:01:15.152Z,8.75
2022-11-25T13:04:03.655Z,3.50
2022-11-25T13:06:46.477Z,3.50
2022-11-25T13:09:38.943Z,3.53
2022-11-25T13:12:14.917Z,4.40
2022-11-25T13:14:51.125Z,4.53
2022-11-25T13:17:19.155Z,2.28
2022-11-25T13:19:46.301Z,2.25
2022-11-25T13:22:23.536Z,2.85
2022-11-25T13:24:50.623Z,1.83
2022-11-25T13:27:53.707Z,3.80
2022-11-25T13:30:32.775Z,7.32
2022-11-25T13:33:25.577Z,2.30
2022-11-25T13:35:56.616Z,4.00
2022-11-25T13:38:29.537Z,7.82
2022-11-25T13:41:22.243Z,5.38
2022-11-25T13:44:14.110Z,4.05
2022-11-25T13:46:52.794Z,5.10
2022-11-25T13:49:38.489Z,3.38
2022-11-25T13:52:11.442Z,6.35
2022-11-25T13:54:55.257Z,4.63
2022-11-25T13:57:32.201Z,3.45
2022-11-25T14:00:01.702Z,4.82
2022-11-25T14:02:28.608Z,5.15
2022-11-25T14:05:07.541Z,6.95
2022-11-25T14:07:56.272Z,5.55
2022-11-25T14:10:55.729Z,5.20
2022-11-25T14:13:50.288Z,4.22
2022-11-25T14:16:56.027Z,4.63
2022-11-25T14:19:54.046Z,7.38
2022-11-25T14:22:51.291Z,4.32
2022-11-25T14:25:51.974Z,5.70
2022-11-25T14:28:21.859Z,9.20
2022-11-25T14:30:54.782Z,4.43
2022-11-25T14:33:38.439Z,6.22
2022-11-25T14:36:13.969Z,6.10
2022-11-25T14:38:47.158Z,5.07
2022-11-25T14:41:20.024Z,4.25
2022-11-25T14:46:23.697Z,6.72
2022-11-25T14:48:55.094Z,7.35
2022-11-25T14:51:22.950Z,10.25
2022-11-25T14:53:51.430Z,7.88
2022-11-25T14:56:31.268Z,6.07
2022-11-25T14:58:59.298Z,8.35
2022-11-25T15:01:28.929Z,5.55
2022-11-25T15:04:13.820Z,8.93
2022-11-25T15:06:43.300Z,5.45
2022-11-25T15:09:29.892Z,6.55
2022-11-25T15:12:03.935Z,6.20
2022-11-25T15:14:34.159Z,4.25
2022-11-25T15:17:06.730Z,4.13
2022-11-25T15:19:36.167Z,3.90
2022-11-25T15:24:56.215Z,4.40
2022-11-25T15:27:28.527Z,5.53
2022-11-25T15:29:57.738Z,4.90
2022-11-25T15:32:37.550Z,8.32
2022-11-25T15:35:05.601Z,6.53
2022-11-25T15:37:32.502Z,9.43
2022-11-25T15:40:40.843Z,5.93
2022-11-25T15:43:25.485Z,7.75
2022-11-25T15:45:57.603Z,7.47
2022-11-25T15:48:29.798Z,7.30
2022-11-25T15:53:44.592Z,12.60
2022-11-25T15:56:15.706Z,17.13
2022-11-25T15:58:42.962Z,17.50
2022-11-25T16:01:15.941Z,17.30
2022-11-25T16:03:46.115Z,21.85
2022-11-25T16:06:24.736Z,17.17
2022-11-25T16:08:56.837Z,16.13
2022-11-25T16:14:15.792Z,16.42
2022-11-25T16:16:42.698Z,15.80
2022-11-25T16:19:09.634Z,19.00
2022-11-25T16:21:36.553Z,16.88
2022-11-25T16:24:06.580Z,10.50
2022-11-25T16:26:38.547Z,15.25
2022-11-25T16:29:19.187Z,9.75
2022-11-25T16:31:46.183Z,17.55
2022-11-25T16:34:20.992Z,9.73
2022-11-25T16:36:48.097Z,9.60
2022-11-25T16:39:14.946Z,10.32
2022-11-25T16:41:42.781Z,10.27
2022-11-25T16:44:22.613Z,10.00
2022-11-25T16:46:49.977Z,8.55
2022-11-25T16:49:19.043Z,8.05
2022-11-25T16:51:46.037Z,9.38
2022-11-25T16:54:13.004Z,15.27
2022-11-25T16:56:42.001Z,9.98
2022-11-25T16:59:40.992Z,10.93
2022-11-25T17:02:18.664Z,8.15
2022-11-25T17:04:46.400Z,10.27
2022-11-25T17:07:33.163Z,10.32
2022-11-25T17:10:00.798Z,10.23
2022-11-25T17:12:31.021Z,10.23
2022-11-25T17:15:00.163Z,11.88
2022-11-25T17:17:28.313Z,11.82
2022-11-25T17:19:55.614Z,8.90
2022-11-25T17:22:27.757Z,10.30
2022-11-25T17:27:29.607Z,12.25
2022-11-25T17:29:58.423Z,13.48
2022-11-25T17:32:26.064Z,11.63
2022-11-25T17:34:53.322Z,12.15
2022-11-25T17:37:25.726Z,16.50
2022-11-25T17:39:53.784Z,12.88
2022-11-25T17:42:33.633Z,13.27
2022-11-25T17:45:04.465Z,14.05
2022-11-25T17:47:31.279Z,16.10
2022-11-25T17:49:58.096Z,14.35
2022-11-25T17:52:25.002Z,16.02
2022-11-25T17:54:51.923Z,18.73
2022-11-25T17:57:21.640Z,15.05
2022-11-25T17:59:48.972Z,14.85
2022-11-25T18:02:18.728Z,12.13
2022-11-25T18:04:45.738Z,17.08
2022-11-25T18:07:12.711Z,26.92
2022-11-25T18:09:39.747Z,20.85
2022-11-25T18:12:13.161Z,16.42
2022-11-25T18:14:42.863Z,10.95
2022-11-25T18:17:15.949Z,16.05
2022-11-25T18:19:43.160Z,11.63
2022-11-25T18:22:18.123Z,12.73
2022-11-25T18:24:45.806Z,12.07
2022-11-25T18:27:32.115Z,9.52
2022-11-25T18:29:59.192Z,11.40
2022-11-25T18:32:26.054Z,8.05
2022-11-25T18:34:53.223Z,13.05
2022-11-25T18:37:20.138Z,11.30
2022-11-25T18:39:47.107Z,9.63
2022-11-25T18:42:26.652Z,10.77
2022-11-25T18:44:56.861Z,10.77
2022-11-25T18:47:24.019Z,12.80
2022-11-25T18:49:55.569Z,11.77
2022-11-25T18:52:24.554Z,11.75
2022-11-25T18:54:51.461Z,12.43
2022-11-25T18:57:18.423Z,11.05
2022-11-25T18:59:48.065Z,8.35
2022-11-25T19:02:23.154Z,11.02
2022-11-25T19:04:50.052Z,9.75
2022-11-25T19:07:16.881Z,9.27
2022-11-25T19:09:43.794Z,12.07
2022-11-25T19:12:16.583Z,9.30
2022-11-25T19:14:43.483Z,15.48
2022-11-25T19:17:19.905Z,9.70
2022-11-25T19:19:47.191Z,9.95
2022-11-25T19:22:15.775Z,10.57
2022-11-25T19:24:42.854Z,11.32
2022-11-25T19:27:23.562Z,8.20
2022-11-25T19:29:51.949Z,13.38
2022-11-25T19:32:21.562Z,13.15
2022-11-25T19:34:52.045Z,9.10
2022-11-25T19:37:21.363Z,12.43
2022-11-25T19:39:50.443Z,11.13
2022-11-25T19:42:17.418Z,11.25
2022-11-25T19:44:45.252Z,12.20
2022-11-25T19:47:17.564Z,10.63
2022-11-25T19:49:44.957Z,9.35
2022-11-25T19:52:21.423Z,13.55
2022-11-25T19:54:48.551Z,10.20
2022-11-25T19:57:23.454Z,11.68
2022-11-25T19:59:50.386Z,11.55
2022-11-25T20:02:21.323Z,12.23
2022-11-25T20:04:50.784Z,12.13
2022-11-25T20:07:19.698Z,13.85
2022-11-25T20:09:47.059Z,14.77
2022-11-25T20:12:20.571Z,12.77
2022-11-25T20:14:47.990Z,12.63
2022-11-25T20:17:37.516Z,12.18
2022-11-25T20:20:11.741Z,15.30
2022-11-25T20:22:42.281Z,11.10
2022-11-25T20:25:12.365Z,10.88
2022-11-25T20:27:39.173Z,10.77
2022-11-25T20:30:17.864Z,8.88
2022-11-25T20:32:45.037Z,10.35
2022-11-25T20:35:12.611Z,17.58
2022-11-25T20:37:51.019Z,17.35
2022-11-25T20:40:21.492Z,24.98
2022-11-25T20:42:50.075Z,20.45
2022-11-25T20:45:19.842Z,30.60
2022-11-25T20:47:52.894Z,19.67
2022-11-25T20:50:21.653Z,12.32
2022-11-25T20:52:50.342Z,14.27
2022-11-25T20:55:23.981Z,16.80
2022-11-25T20:57:52.557Z,17.50
2022-11-25T21:00:28.437Z,16.50
2022-11-25T21:02:57.388Z,15.35
2022-11-25T21:05:26.403Z,18.15
2022-11-25T21:07:55.299Z,18.27
2022-11-25T21:10:30.142Z,17.48
2022-11-25T21:12:57.325Z,18.10
2022-11-25T21:15:26.492Z,18.52
2022-11-25T21:17:53.613Z,15.80
2022-11-25T21:20:20.957Z,23.05
2022-11-25T21:22:52.925Z,19.42
2022-11-25T21:25:22.437Z,24.23
2022-11-25T21:27:51.068Z,16.20
2022-11-25T21:30:27.486Z,21.75
2022-11-25T21:32:56.329Z,16.08
2022-11-25T21:35:35.503Z,16.85
2022-11-25T21:38:05.534Z,17.30
2022-11-25T21:40:41.205Z,19.17
2022-11-25T21:43:26.369Z,18.45
2022-11-25T21:46:00.989Z,18.90
2022-11-25T21:48:28.369Z,15.30
2022-11-25T21:50:55.421Z,14.90
2022-11-25T21:53:22.222Z,16.17
2022-11-25T21:55:49.546Z,13.07
2022-11-25T21:58:19.579Z,15.05
2022-11-25T22:00:52.769Z,13.55
2022-11-25T22:03:21.447Z,16.55
2022-11-25T22:05:48.961Z,19.15
2022-11-25T22:08:16.401Z,14.05
2022-11-25T22:10:49.875Z,17.42
2022-11-25T22:13:29.449Z,19.92
2022-11-25T22:15:58.443Z,15.25
2022-11-25T22:18:31.974Z,15.00
2022-11-25T22:20:59.453Z,15.68
2022-11-25T22:23:26.561Z,16.45
2022-11-25T22:25:54.498Z,14.13
2022-11-25T22:28:27.664Z,16.35
2022-11-25T22:31:00.962Z,15.35
2022-11-25T22:33:33.654Z,15.82
2022-11-25T22:36:01.605Z,14.07
2022-11-25T22:38:29.535Z,15.07
2022-11-25T22:41:02.540Z,15.85
2022-11-25T22:43:34.629Z,16.58
2022-11-25T22:46:02.864Z,15.07
2022-11-25T22:48:38.131Z,14.95
2022-11-25T22:51:06.219Z,9.57
2022-11-25T22:53:33.045Z,13.75
2022-11-25T22:56:00.169Z,11.60
2022-11-25T22:58:28.160Z,12.13
2022-11-25T23:00:57.825Z,12.60
2022-11-25T23:03:30.062Z,12.07
2022-11-25T23:08:27.050Z,14.90
2022-11-25T23:10:55.001Z,16.38
2022-11-25T23:13:22.362Z,13.00
2022-11-25T23:15:53.559Z,13.40
2022-11-25T23:18:38.118Z,16.60
2022-11-25T23:21:25.562Z,9.88
2022-11-25T23:23:52.602Z,9.18
2022-11-25T23:26:19.603Z,11.23
2022-11-25T23:28:46.529Z,13.85
2022-11-25T23:31:15.062Z,11.07
2022-11-25T23:33:47.465Z,8.13
2022-11-25T23:36:27.530Z,10.85
2022-11-25T23:39:00.100Z,11.98
2022-11-25T23:41:30.139Z,10.05
2022-11-25T23:44:04.306Z,9.13
2022-11-25T23:46:35.040Z,9.27
2022-11-25T23:49:03.735Z,9.10
2022-11-25T23:51:31.184Z,8.95
2022-11-25T23:53:59.182Z,7.60
2022-11-25T23:56:27.269Z,11.13
2022-11-25T23:58:54.176Z,10.65
